sensor_id;sensor_type;location;lat;lon;timestamp;temperature;humidity
9103;DHT22;4587;51.434;6.788;2023-04-25T00:00:26;7.90;99.90
9103;DHT22;4587;51.434;6.788;2023-04-25T00:02:52;8.00;99.90
9103;DHT22;4587;51.434;6.788;2023-04-25T00:05:18;8.10;99.90
9103;DHT22;4587;51.434;6.788;2023-04-25T00:07:45;8.10;99.90
9103;DHT22;4587;51.434;6.788;2023-04-25T00:10:11;8.10;99.90
9103;DHT22;4587;51.434;6.788;2023-04-25T00:12:37;8.00;99.90
9103;DHT22;4587;51.434;6.788;2023-04-25T00:15:04;7.90;99.90
9103;DHT22;4587;51.434;6.788;2023-04-25T00:17:30;8.00;99.90
9103;DHT22;4587;51.434;6.788;2023-04-25T00:19:56;8.00;99.90
9103;DHT22;4587;51.434;6.788;2023-04-25T00:22:23;8.00;99.90
9103;DHT22;4587;51.434;6.788;2023-04-25T00:24:49;8.00;99.90
9103;DHT22;4587;51.434;6.788;2023-04-25T00:27:15;8.10;99.90
9103;DHT22;4587;51.434;6.788;2023-04-25T00:29:41;8.10;99.90
9103;DHT22;4587;51.434;6.788;2023-04-25T00:32:07;8.10;99.90
9103;DHT22;4587;51.434;6.788;2023-04-25T00:34:33;8.00;99.90
9103;DHT22;4587;51.434;6.788;2023-04-25T00:36:59;7.90;99.90
9103;DHT22;4587;51.434;6.788;2023-04-25T00:39:27;8.00;99.90
9103;DHT22;4587;51.434;6.788;2023-04-25T00:41:54;8.00;99.90
9103;DHT22;4587;51.434;6.788;2023-04-25T00:44:20;7.90;99.90
9103;DHT22;4587;51.434;6.788;2023-04-25T00:46:47;8.00;99.90
9103;DHT22;4587;51.434;6.788;2023-04-25T00:49:14;8.00;99.90
9103;DHT22;4587;51.434;6.788;2023-04-25T00:51:41;7.90;99.90
9103;DHT22;4587;51.434;6.788;2023-04-25T00:54:07;8.00;99.90
9103;DHT22;4587;51.434;6.788;2023-04-25T00:56:33;8.00;99.90
9103;DHT22;4587;51.434;6.788;2023-04-25T00:58:59;8.10;99.90
9103;DHT22;4587;51.434;6.788;2023-04-25T01:01:25;8.00;99.90
9103;DHT22;4587;51.434;6.788;2023-04-25T01:03:51;8.10;99.90
9103;DHT22;4587;51.434;6.788;2023-04-25T01:06:17;8.10;99.90
9103;DHT22;4587;51.434;6.788;2023-04-25T01:08:43;8.10;99.90
9103;DHT22;4587;51.434;6.788;2023-04-25T01:11:09;8.10;99.90
9103;DHT22;4587;51.434;6.788;2023-04-25T01:13:38;8.00;99.90
9103;DHT22;4587;51.434;6.788;2023-04-25T01:16:04;8.00;99.90
9103;DHT22;4587;51.434;6.788;2023-04-25T01:18:29;8.10;99.90
9103;DHT22;4587;51.434;6.788;2023-04-25T01:20:55;8.10;99.90
9103;DHT22;4587;51.434;6.788;2023-04-25T01:23:23;8.10;99.90
9103;DHT22;4587;51.434;6.788;2023-04-25T01:25:49;8.10;99.90
9103;DHT22;4587;51.434;6.788;2023-04-25T01:28:15;8.10;99.90
9103;DHT22;4587;51.434;6.788;2023-04-25T01:30:41;8.10;99.90
9103;DHT22;4587;51.434;6.788;2023-04-25T01:33:08;8.10;99.90
9103;DHT22;4587;51.434;6.788;2023-04-25T01:35:34;8.10;99.90
9103;DHT22;4587;51.434;6.788;2023-04-25T01:38:00;8.10;99.90
9103;DHT22;4587;51.434;6.788;2023-04-25T01:40:27;8.10;99.90
9103;DHT22;4587;51.434;6.788;2023-04-25T01:42:53;8.10;99.90
9103;DHT22;4587;51.434;6.788;2023-04-25T01:45:19;8.10;99.90
9103;DHT22;4587;51.434;6.788;2023-04-25T01:47:45;8.10;99.90
9103;DHT22;4587;51.434;6.788;2023-04-25T01:50:15;8.10;99.90
9103;DHT22;4587;51.434;6.788;2023-04-25T01:52:41;8.00;99.90
9103;DHT22;4587;51.434;6.788;2023-04-25T01:55:07;8.00;99.90
9103;DHT22;4587;51.434;6.788;2023-04-25T01:57:33;8.00;99.90
9103;DHT22;4587;51.434;6.788;2023-04-25T02:00:01;8.10;99.90
9103;DHT22;4587;51.434;6.788;2023-04-25T02:02:27;8.10;99.90
9103;DHT22;4587;51.434;6.788;2023-04-25T02:04:53;8.10;99.90
9103;DHT22;4587;51.434;6.788;2023-04-25T02:07:20;8.00;99.90
9103;DHT22;4587;51.434;6.788;2023-04-25T02:09:46;8.10;99.90
9103;DHT22;4587;51.434;6.788;2023-04-25T02:12:12;8.20;99.90
9103;DHT22;4587;51.434;6.788;2023-04-25T02:14:37;8.10;99.90
9103;DHT22;4587;51.434;6.788;2023-04-25T02:17:03;8.10;99.90
9103;DHT22;4587;51.434;6.788;2023-04-25T02:19:29;8.10;99.90
9103;DHT22;4587;51.434;6.788;2023-04-25T02:21:54;8.10;99.90
9103;DHT22;4587;51.434;6.788;2023-04-25T02:24:22;8.00;99.90
9103;DHT22;4587;51.434;6.788;2023-04-25T02:26:48;8.00;99.90
9103;DHT22;4587;51.434;6.788;2023-04-25T02:29:15;7.90;99.90
9103;DHT22;4587;51.434;6.788;2023-04-25T02:31:40;8.00;99.90
9103;DHT22;4587;51.434;6.788;2023-04-25T02:34:06;8.10;99.90
9103;DHT22;4587;51.434;6.788;2023-04-25T02:36:32;8.10;99.90
9103;DHT22;4587;51.434;6.788;2023-04-25T02:39:00;8.10;99.90
9103;DHT22;4587;51.434;6.788;2023-04-25T02:41:26;8.00;99.90
9103;DHT22;4587;51.434;6.788;2023-04-25T02:43:52;8.00;99.90
9103;DHT22;4587;51.434;6.788;2023-04-25T02:46:18;8.00;99.90
9103;DHT22;4587;51.434;6.788;2023-04-25T02:48:43;8.00;99.90
9103;DHT22;4587;51.434;6.788;2023-04-25T02:51:09;8.00;99.90
9103;DHT22;4587;51.434;6.788;2023-04-25T02:53:35;8.00;99.90
9103;DHT22;4587;51.434;6.788;2023-04-25T02:56:01;8.10;99.90
9103;DHT22;4587;51.434;6.788;2023-04-25T02:58:27;8.00;99.90
9103;DHT22;4587;51.434;6.788;2023-04-25T03:00:53;8.00;99.90
9103;DHT22;4587;51.434;6.788;2023-04-25T03:03:18;8.00;99.90
9103;DHT22;4587;51.434;6.788;2023-04-25T03:05:49;8.00;99.90
9103;DHT22;4587;51.434;6.788;2023-04-25T03:08:16;8.00;99.90
9103;DHT22;4587;51.434;6.788;2023-04-25T03:10:42;7.90;99.90
9103;DHT22;4587;51.434;6.788;2023-04-25T03:13:08;7.90;99.90
9103;DHT22;4587;51.434;6.788;2023-04-25T03:15:34;7.90;99.90
9103;DHT22;4587;51.434;6.788;2023-04-25T03:18:00;7.90;99.90
9103;DHT22;4587;51.434;6.788;2023-04-25T03:20:26;7.90;99.90
9103;DHT22;4587;51.434;6.788;2023-04-25T03:22:52;7.90;99.90
9103;DHT22;4587;51.434;6.788;2023-04-25T03:25:18;7.90;99.90
9103;DHT22;4587;51.434;6.788;2023-04-25T03:27:43;7.90;99.90
9103;DHT22;4587;51.434;6.788;2023-04-25T03:30:09;7.80;99.90
9103;DHT22;4587;51.434;6.788;2023-04-25T03:32:35;7.80;99.90
9103;DHT22;4587;51.434;6.788;2023-04-25T03:35:01;7.80;99.90
9103;DHT22;4587;51.434;6.788;2023-04-25T03:37:26;7.80;99.90
9103;DHT22;4587;51.434;6.788;2023-04-25T03:39:52;7.80;99.90
9103;DHT22;4587;51.434;6.788;2023-04-25T03:42:18;7.80;99.90
9103;DHT22;4587;51.434;6.788;2023-04-25T03:44:44;7.80;99.90
9103;DHT22;4587;51.434;6.788;2023-04-25T03:47:09;7.70;99.90
9103;DHT22;4587;51.434;6.788;2023-04-25T03:49:35;7.80;99.90
9103;DHT22;4587;51.434;6.788;2023-04-25T03:52:02;7.80;99.90
9103;DHT22;4587;51.434;6.788;2023-04-25T03:54:27;7.70;99.90
9103;DHT22;4587;51.434;6.788;2023-04-25T03:56:53;7.70;99.90
9103;DHT22;4587;51.434;6.788;2023-04-25T03:59:19;7.70;99.90
9103;DHT22;4587;51.434;6.788;2023-04-25T04:01:44;7.70;99.90
9103;DHT22;4587;51.434;6.788;2023-04-25T04:04:10;7.70;99.90
9103;DHT22;4587;51.434;6.788;2023-04-25T04:06:36;7.70;99.90
9103;DHT22;4587;51.434;6.788;2023-04-25T04:09:02;7.60;99.90
9103;DHT22;4587;51.434;6.788;2023-04-25T04:11:28;7.60;99.90
9103;DHT22;4587;51.434;6.788;2023-04-25T04:13:54;7.60;99.90
9103;DHT22;4587;51.434;6.788;2023-04-25T04:16:20;7.60;99.90
9103;DHT22;4587;51.434;6.788;2023-04-25T04:18:46;7.60;99.90
9103;DHT22;4587;51.434;6.788;2023-04-25T04:21:12;7.60;99.90
9103;DHT22;4587;51.434;6.788;2023-04-25T04:23:37;7.60;99.90
9103;DHT22;4587;51.434;6.788;2023-04-25T04:26:03;7.50;99.90
9103;DHT22;4587;51.434;6.788;2023-04-25T04:28:29;7.50;99.90
9103;DHT22;4587;51.434;6.788;2023-04-25T04:30:55;7.50;99.90
9103;DHT22;4587;51.434;6.788;2023-04-25T04:33:21;7.50;99.90
9103;DHT22;4587;51.434;6.788;2023-04-25T04:35:46;7.40;99.90
9103;DHT22;4587;51.434;6.788;2023-04-25T04:38:13;7.40;99.90
9103;DHT22;4587;51.434;6.788;2023-04-25T04:40:41;7.40;99.90
9103;DHT22;4587;51.434;6.788;2023-04-25T04:43:08;7.30;99.90
9103;DHT22;4587;51.434;6.788;2023-04-25T04:45:36;7.30;99.90
9103;DHT22;4587;51.434;6.788;2023-04-25T04:48:07;7.20;99.90
9103;DHT22;4587;51.434;6.788;2023-04-25T04:50:33;7.30;99.90
9103;DHT22;4587;51.434;6.788;2023-04-25T04:53:01;7.30;99.90
9103;DHT22;4587;51.434;6.788;2023-04-25T04:55:27;7.20;99.90
9103;DHT22;4587;51.434;6.788;2023-04-25T04:57:53;7.20;99.90
9103;DHT22;4587;51.434;6.788;2023-04-25T05:00:19;7.20;99.90
9103;DHT22;4587;51.434;6.788;2023-04-25T05:02:46;7.10;99.90
9103;DHT22;4587;51.434;6.788;2023-04-25T05:05:11;7.00;99.90
9103;DHT22;4587;51.434;6.788;2023-04-25T05:07:37;7.00;99.90
9103;DHT22;4587;51.434;6.788;2023-04-25T05:10:03;7.00;99.90
9103;DHT22;4587;51.434;6.788;2023-04-25T05:12:29;7.10;99.90
9103;DHT22;4587;51.434;6.788;2023-04-25T05:14:55;7.10;99.90
9103;DHT22;4587;51.434;6.788;2023-04-25T05:17:21;7.20;99.90
9103;DHT22;4587;51.434;6.788;2023-04-25T05:19:47;7.30;99.90
9103;DHT22;4587;51.434;6.788;2023-04-25T05:22:12;7.40;99.90
9103;DHT22;4587;51.434;6.788;2023-04-25T05:24:38;7.40;99.90
9103;DHT22;4587;51.434;6.788;2023-04-25T05:27:04;7.50;99.90
9103;DHT22;4587;51.434;6.788;2023-04-25T05:29:31;7.60;99.90
9103;DHT22;4587;51.434;6.788;2023-04-25T05:31:56;7.60;99.90
9103;DHT22;4587;51.434;6.788;2023-04-25T05:34:22;7.60;99.90
9103;DHT22;4587;51.434;6.788;2023-04-25T05:36:47;7.80;99.90
9103;DHT22;4587;51.434;6.788;2023-04-25T05:39:15;7.80;99.90
9103;DHT22;4587;51.434;6.788;2023-04-25T05:41:42;7.90;99.90
9103;DHT22;4587;51.434;6.788;2023-04-25T05:44:11;7.90;99.90
9103;DHT22;4587;51.434;6.788;2023-04-25T05:46:36;7.90;99.90
9103;DHT22;4587;51.434;6.788;2023-04-25T05:49:03;8.10;99.90
9103;DHT22;4587;51.434;6.788;2023-04-25T05:51:29;8.10;99.90
9103;DHT22;4587;51.434;6.788;2023-04-25T05:53:54;8.10;99.90
9103;DHT22;4587;51.434;6.788;2023-04-25T05:56:20;8.20;99.90
9103;DHT22;4587;51.434;6.788;2023-04-25T05:58:46;8.20;99.90
9103;DHT22;4587;51.434;6.788;2023-04-25T06:01:12;8.20;99.90
9103;DHT22;4587;51.434;6.788;2023-04-25T06:03:38;8.30;99.90
9103;DHT22;4587;51.434;6.788;2023-04-25T06:06:04;8.40;99.90
9103;DHT22;4587;51.434;6.788;2023-04-25T06:08:29;8.40;99.90
9103;DHT22;4587;51.434;6.788;2023-04-25T06:10:55;8.50;99.90
9103;DHT22;4587;51.434;6.788;2023-04-25T06:13:21;8.60;99.90
9103;DHT22;4587;51.434;6.788;2023-04-25T06:15:47;8.70;99.90
9103;DHT22;4587;51.434;6.788;2023-04-25T06:18:12;8.70;99.90
9103;DHT22;4587;51.434;6.788;2023-04-25T06:20:38;8.80;99.90
9103;DHT22;4587;51.434;6.788;2023-04-25T06:23:03;8.80;99.90
9103;DHT22;4587;51.434;6.788;2023-04-25T06:25:30;8.80;99.90
9103;DHT22;4587;51.434;6.788;2023-04-25T06:27:55;9.10;99.90
9103;DHT22;4587;51.434;6.788;2023-04-25T06:30:21;9.50;99.90
9103;DHT22;4587;51.434;6.788;2023-04-25T06:32:53;9.60;99.90
9103;DHT22;4587;51.434;6.788;2023-04-25T06:35:19;9.70;99.90
9103;DHT22;4587;51.434;6.788;2023-04-25T06:37:45;10.50;99.90
9103;DHT22;4587;51.434;6.788;2023-04-25T06:40:11;11.30;99.90
9103;DHT22;4587;51.434;6.788;2023-04-25T06:42:36;11.40;99.90
9103;DHT22;4587;51.434;6.788;2023-04-25T06:45:03;11.10;99.90
9103;DHT22;4587;51.434;6.788;2023-04-25T06:47:28;10.60;99.90
9103;DHT22;4587;51.434;6.788;2023-04-25T06:49:55;10.20;99.90
9103;DHT22;4587;51.434;6.788;2023-04-25T06:52:21;9.90;99.90
9103;DHT22;4587;51.434;6.788;2023-04-25T06:54:46;9.80;99.90
9103;DHT22;4587;51.434;6.788;2023-04-25T06:57:12;9.70;99.90
9103;DHT22;4587;51.434;6.788;2023-04-25T06:59:38;9.60;99.90
9103;DHT22;4587;51.434;6.788;2023-04-25T07:02:04;9.60;99.90
9103;DHT22;4587;51.434;6.788;2023-04-25T07:04:29;9.50;99.90
9103;DHT22;4587;51.434;6.788;2023-04-25T07:06:56;9.40;99.90
9103;DHT22;4587;51.434;6.788;2023-04-25T07:09:22;9.50;99.90
9103;DHT22;4587;51.434;6.788;2023-04-25T07:11:47;9.60;99.90
9103;DHT22;4587;51.434;6.788;2023-04-25T07:14:13;9.70;99.90
9103;DHT22;4587;51.434;6.788;2023-04-25T07:16:39;9.80;99.90
9103;DHT22;4587;51.434;6.788;2023-04-25T07:19:05;9.80;99.90
9103;DHT22;4587;51.434;6.788;2023-04-25T07:21:31;10.60;99.90
9103;DHT22;4587;51.434;6.788;2023-04-25T07:23:57;12.40;99.90
9103;DHT22;4587;51.434;6.788;2023-04-25T07:26:23;13.80;99.90
9103;DHT22;4587;51.434;6.788;2023-04-25T07:28:48;15.20;99.90
9103;DHT22;4587;51.434;6.788;2023-04-25T07:31:17;15.80;99.90
9103;DHT22;4587;51.434;6.788;2023-04-25T07:33:44;15.80;99.90
9103;DHT22;4587;51.434;6.788;2023-04-25T07:36:11;15.50;99.90
9103;DHT22;4587;51.434;6.788;2023-04-25T07:38:38;15.20;99.90
9103;DHT22;4587;51.434;6.788;2023-04-25T07:41:03;15.60;99.90
9103;DHT22;4587;51.434;6.788;2023-04-25T07:43:29;15.70;99.90
9103;DHT22;4587;51.434;6.788;2023-04-25T07:45:56;15.30;99.90
9103;DHT22;4587;51.434;6.788;2023-04-25T07:48:22;14.80;99.90
9103;DHT22;4587;51.434;6.788;2023-04-25T07:50:48;14.60;99.90
9103;DHT22;4587;51.434;6.788;2023-04-25T07:53:14;14.20;99.90
9103;DHT22;4587;51.434;6.788;2023-04-25T07:55:40;13.70;99.90
9103;DHT22;4587;51.434;6.788;2023-04-25T07:58:09;13.40;99.90
9103;DHT22;4587;51.434;6.788;2023-04-25T08:00:35;13.90;99.90
9103;DHT22;4587;51.434;6.788;2023-04-25T08:03:01;14.30;99.90
9103;DHT22;4587;51.434;6.788;2023-04-25T08:05:28;14.10;99.90
9103;DHT22;4587;51.434;6.788;2023-04-25T08:07:53;14.30;99.90
9103;DHT22;4587;51.434;6.788;2023-04-25T08:10:19;15.50;99.90
9103;DHT22;4587;51.434;6.788;2023-04-25T08:12:46;15.60;99.90
9103;DHT22;4587;51.434;6.788;2023-04-25T08:15:11;15.30;99.90
9103;DHT22;4587;51.434;6.788;2023-04-25T08:17:39;15.10;99.90
9103;DHT22;4587;51.434;6.788;2023-04-25T08:20:05;15.00;99.90
9103;DHT22;4587;51.434;6.788;2023-04-25T08:22:31;14.70;99.90
9103;DHT22;4587;51.434;6.788;2023-04-25T08:24:57;14.80;99.90
9103;DHT22;4587;51.434;6.788;2023-04-25T08:27:23;14.40;99.90
9103;DHT22;4587;51.434;6.788;2023-04-25T08:29:49;14.10;99.90
9103;DHT22;4587;51.434;6.788;2023-04-25T08:32:15;14.10;99.90
9103;DHT22;4587;51.434;6.788;2023-04-25T08:34:41;14.00;99.90
9103;DHT22;4587;51.434;6.788;2023-04-25T08:37:09;13.80;99.90
9103;DHT22;4587;51.434;6.788;2023-04-25T08:39:36;13.80;99.90
9103;DHT22;4587;51.434;6.788;2023-04-25T08:42:06;13.70;99.90
9103;DHT22;4587;51.434;6.788;2023-04-25T08:44:34;13.50;99.90
9103;DHT22;4587;51.434;6.788;2023-04-25T08:47:02;13.30;99.90
9103;DHT22;4587;51.434;6.788;2023-04-25T08:49:31;13.20;99.90
9103;DHT22;4587;51.434;6.788;2023-04-25T08:52:00;13.00;99.90
9103;DHT22;4587;51.434;6.788;2023-04-25T08:54:27;13.00;99.90
9103;DHT22;4587;51.434;6.788;2023-04-25T08:56:54;13.10;99.90
9103;DHT22;4587;51.434;6.788;2023-04-25T08:59:21;13.00;99.90
9103;DHT22;4587;51.434;6.788;2023-04-25T09:01:49;12.80;99.90
9103;DHT22;4587;51.434;6.788;2023-04-25T09:04:15;12.70;99.90
9103;DHT22;4587;51.434;6.788;2023-04-25T09:06:41;12.70;99.90
9103;DHT22;4587;51.434;6.788;2023-04-25T09:09:08;12.80;99.90
9103;DHT22;4587;51.434;6.788;2023-04-25T09:11:36;13.30;99.90
9103;DHT22;4587;51.434;6.788;2023-04-25T09:14:21;13.80;99.90
9103;DHT22;4587;51.434;6.788;2023-04-25T09:19:28;14.60;99.90
9103;DHT22;4587;51.434;6.788;2023-04-25T09:21:56;14.70;99.70
9103;DHT22;4587;51.434;6.788;2023-04-25T09:24:42;14.90;99.90
9103;DHT22;4587;51.434;6.788;2023-04-25T09:27:19;15.20;99.90
9103;DHT22;4587;51.434;6.788;2023-04-25T09:29:45;15.10;99.20
9103;DHT22;4587;51.434;6.788;2023-04-25T09:32:21;14.90;98.80
9103;DHT22;4587;51.434;6.788;2023-04-25T09:34:50;14.60;97.90
9103;DHT22;4587;51.434;6.788;2023-04-25T09:37:20;14.60;98.50
9103;DHT22;4587;51.434;6.788;2023-04-25T09:39:47;14.70;97.30
9103;DHT22;4587;51.434;6.788;2023-04-25T09:42:14;14.50;97.30
9103;DHT22;4587;51.434;6.788;2023-04-25T09:44:47;14.30;97.10
9103;DHT22;4587;51.434;6.788;2023-04-25T09:47:15;14.20;97.70
9103;DHT22;4587;51.434;6.788;2023-04-25T09:49:43;13.90;96.40
9103;DHT22;4587;51.434;6.788;2023-04-25T09:52:10;13.70;97.30
9103;DHT22;4587;51.434;6.788;2023-04-25T09:54:38;13.70;98.30
9103;DHT22;4587;51.434;6.788;2023-04-25T09:57:14;13.60;97.00
9103;DHT22;4587;51.434;6.788;2023-04-25T09:59:45;13.50;97.10
9103;DHT22;4587;51.434;6.788;2023-04-25T10:02:12;13.50;96.80
9103;DHT22;4587;51.434;6.788;2023-04-25T10:04:39;13.50;97.00
9103;DHT22;4587;51.434;6.788;2023-04-25T10:07:07;13.60;97.00
9103;DHT22;4587;51.434;6.788;2023-04-25T10:09:33;14.00;98.10
9103;DHT22;4587;51.434;6.788;2023-04-25T10:12:03;14.20;96.90
9103;DHT22;4587;51.434;6.788;2023-04-25T10:14:32;14.20;96.40
9103;DHT22;4587;51.434;6.788;2023-04-25T10:16:58;13.90;94.70
9103;DHT22;4587;51.434;6.788;2023-04-25T10:19:25;13.90;96.10
9103;DHT22;4587;51.434;6.788;2023-04-25T10:24:23;14.20;96.70
9103;DHT22;4587;51.434;6.788;2023-04-25T10:26:50;14.30;96.60
9103;DHT22;4587;51.434;6.788;2023-04-25T10:29:26;14.50;96.80
9103;DHT22;4587;51.434;6.788;2023-04-25T10:31:52;14.60;96.30
9103;DHT22;4587;51.434;6.788;2023-04-25T10:34:18;14.50;95.10
9103;DHT22;4587;51.434;6.788;2023-04-25T10:36:52;14.50;95.50
9103;DHT22;4587;51.434;6.788;2023-04-25T10:39:23;14.60;94.60
9103;DHT22;4587;51.434;6.788;2023-04-25T10:41:58;14.90;96.00
9103;DHT22;4587;51.434;6.788;2023-04-25T10:44:28;15.20;95.20
9103;DHT22;4587;51.434;6.788;2023-04-25T10:47:01;15.20;94.10
9103;DHT22;4587;51.434;6.788;2023-04-25T10:57:07;13.80;97.00
9103;DHT22;4587;51.434;6.788;2023-04-25T10:59:33;13.30;98.70
9103;DHT22;4587;51.434;6.788;2023-04-25T11:01:59;12.80;99.80
9103;DHT22;4587;51.434;6.788;2023-04-25T11:04:26;12.50;99.90
9103;DHT22;4587;51.434;6.788;2023-04-25T11:07:05;12.20;99.90
9103;DHT22;4587;51.434;6.788;2023-04-25T11:09:34;11.90;99.90
9103;DHT22;4587;51.434;6.788;2023-04-25T11:12:00;11.80;99.90
9103;DHT22;4587;51.434;6.788;2023-04-25T11:14:27;11.80;99.90
9103;DHT22;4587;51.434;6.788;2023-04-25T11:16:56;11.90;99.90
9103;DHT22;4587;51.434;6.788;2023-04-25T11:19:23;12.00;99.90
9103;DHT22;4587;51.434;6.788;2023-04-25T11:21:50;12.00;99.90
9103;DHT22;4587;51.434;6.788;2023-04-25T11:24:20;11.80;99.90
9103;DHT22;4587;51.434;6.788;2023-04-25T11:26:50;11.70;99.90
9103;DHT22;4587;51.434;6.788;2023-04-25T11:29:16;11.80;99.90
9103;DHT22;4587;51.434;6.788;2023-04-25T11:31:45;11.80;99.90
9103;DHT22;4587;51.434;6.788;2023-04-25T11:34:11;11.80;99.90
9103;DHT22;4587;51.434;6.788;2023-04-25T11:36:38;11.70;99.90
9103;DHT22;4587;51.434;6.788;2023-04-25T11:39:04;11.80;99.90
9103;DHT22;4587;51.434;6.788;2023-04-25T11:41:31;11.90;99.90
9103;DHT22;4587;51.434;6.788;2023-04-25T11:43:57;11.90;99.90
9103;DHT22;4587;51.434;6.788;2023-04-25T11:46:23;11.90;99.90
9103;DHT22;4587;51.434;6.788;2023-04-25T11:48:48;11.90;99.90
9103;DHT22;4587;51.434;6.788;2023-04-25T11:51:18;11.80;99.90
9103;DHT22;4587;51.434;6.788;2023-04-25T11:53:44;11.70;99.90
9103;DHT22;4587;51.434;6.788;2023-04-25T11:56:10;11.60;99.90
9103;DHT22;4587;51.434;6.788;2023-04-25T11:59:14;11.40;99.90
9103;DHT22;4587;51.434;6.788;2023-04-25T12:01:49;11.30;99.90
9103;DHT22;4587;51.434;6.788;2023-04-25T12:04:23;11.00;99.90
9103;DHT22;4587;51.434;6.788;2023-04-25T12:06:53;10.80;99.90
9103;DHT22;4587;51.434;6.788;2023-04-25T12:09:21;10.70;99.90
9103;DHT22;4587;51.434;6.788;2023-04-25T12:11:54;10.70;99.90
9103;DHT22;4587;51.434;6.788;2023-04-25T12:14:25;10.80;99.90
9103;DHT22;4587;51.434;6.788;2023-04-25T12:16:53;10.90;99.90
9103;DHT22;4587;51.434;6.788;2023-04-25T12:19:20;11.00;99.90
9103;DHT22;4587;51.434;6.788;2023-04-25T12:21:47;11.10;99.90
9103;DHT22;4587;51.434;6.788;2023-04-25T12:27:06;11.40;99.90
9103;DHT22;4587;51.434;6.788;2023-04-25T12:29:35;11.70;99.90
9103;DHT22;4587;51.434;6.788;2023-04-25T12:32:01;12.00;99.90
9103;DHT22;4587;51.434;6.788;2023-04-25T12:34:27;12.20;99.90
9103;DHT22;4587;51.434;6.788;2023-04-25T12:36:53;12.40;99.90
9103;DHT22;4587;51.434;6.788;2023-04-25T12:39:21;12.60;99.90
9103;DHT22;4587;51.434;6.788;2023-04-25T12:41:48;12.80;99.90
9103;DHT22;4587;51.434;6.788;2023-04-25T12:44:14;13.00;99.90
9103;DHT22;4587;51.434;6.788;2023-04-25T12:46:41;13.00;99.90
9103;DHT22;4587;51.434;6.788;2023-04-25T12:49:07;13.20;99.90
9103;DHT22;4587;51.434;6.788;2023-04-25T12:51:36;13.40;99.90
9103;DHT22;4587;51.434;6.788;2023-04-25T12:54:03;13.50;99.90
9103;DHT22;4587;51.434;6.788;2023-04-25T12:56:33;13.60;99.90
9103;DHT22;4587;51.434;6.788;2023-04-25T12:58:58;13.50;99.90
9103;DHT22;4587;51.434;6.788;2023-04-25T13:01:25;13.30;99.90
9103;DHT22;4587;51.434;6.788;2023-04-25T13:03:51;13.00;99.90
9103;DHT22;4587;51.434;6.788;2023-04-25T13:06:22;12.70;99.90
9103;DHT22;4587;51.434;6.788;2023-04-25T13:08:48;12.30;99.90
9103;DHT22;4587;51.434;6.788;2023-04-25T13:11:14;12.10;99.90
9103;DHT22;4587;51.434;6.788;2023-04-25T13:13:43;11.80;99.90
9103;DHT22;4587;51.434;6.788;2023-04-25T13:16:09;11.60;99.90
9103;DHT22;4587;51.434;6.788;2023-04-25T13:18:35;11.40;99.90
9103;DHT22;4587;51.434;6.788;2023-04-25T13:21:01;11.50;99.90
9103;DHT22;4587;51.434;6.788;2023-04-25T13:23:28;11.30;99.90
9103;DHT22;4587;51.434;6.788;2023-04-25T13:25:54;11.30;99.90
9103;DHT22;4587;51.434;6.788;2023-04-25T13:28:21;11.50;99.90
9103;DHT22;4587;51.434;6.788;2023-04-25T13:30:47;11.70;99.90
9103;DHT22;4587;51.434;6.788;2023-04-25T13:33:14;12.00;99.90
9103;DHT22;4587;51.434;6.788;2023-04-25T13:35:39;12.20;99.90
9103;DHT22;4587;51.434;6.788;2023-04-25T13:38:05;12.40;99.90
9103;DHT22;4587;51.434;6.788;2023-04-25T13:40:31;12.60;99.90
9103;DHT22;4587;51.434;6.788;2023-04-25T13:42:57;12.90;99.90
9103;DHT22;4587;51.434;6.788;2023-04-25T13:45:23;12.80;99.90
9103;DHT22;4587;51.434;6.788;2023-04-25T13:47:49;12.80;99.90
9103;DHT22;4587;51.434;6.788;2023-04-25T13:50:15;12.60;99.90
9103;DHT22;4587;51.434;6.788;2023-04-25T13:52:41;12.40;99.90
9103;DHT22;4587;51.434;6.788;2023-04-25T13:55:08;12.40;99.90
9103;DHT22;4587;51.434;6.788;2023-04-25T13:57:34;12.40;99.90
9103;DHT22;4587;51.434;6.788;2023-04-25T14:00:00;12.40;99.90
9103;DHT22;4587;51.434;6.788;2023-04-25T14:02:36;12.50;99.90
9103;DHT22;4587;51.434;6.788;2023-04-25T14:05:03;12.60;99.90
9103;DHT22;4587;51.434;6.788;2023-04-25T14:07:29;12.70;99.90
9103;DHT22;4587;51.434;6.788;2023-04-25T14:09:56;13.00;99.90
9103;DHT22;4587;51.434;6.788;2023-04-25T14:12:23;13.20;99.90
9103;DHT22;4587;51.434;6.788;2023-04-25T14:14:49;13.10;99.60
9103;DHT22;4587;51.434;6.788;2023-04-25T14:17:14;13.00;99.90
9103;DHT22;4587;51.434;6.788;2023-04-25T14:19:40;12.90;99.30
9103;DHT22;4587;51.434;6.788;2023-04-25T14:22:10;12.60;99.90
9103;DHT22;4587;51.434;6.788;2023-04-25T14:24:36;12.60;99.90
9103;DHT22;4587;51.434;6.788;2023-04-25T14:27:03;12.50;99.90
9103;DHT22;4587;51.434;6.788;2023-04-25T14:29:29;12.50;99.70
9103;DHT22;4587;51.434;6.788;2023-04-25T14:31:55;12.50;99.40
9103;DHT22;4587;51.434;6.788;2023-04-25T14:34:23;12.50;99.90
9103;DHT22;4587;51.434;6.788;2023-04-25T14:36:48;12.50;99.10
9103;DHT22;4587;51.434;6.788;2023-04-25T14:39:14;12.50;98.80
9103;DHT22;4587;51.434;6.788;2023-04-25T14:41:40;12.50;99.30
9103;DHT22;4587;51.434;6.788;2023-04-25T14:44:05;12.40;99.90
9103;DHT22;4587;51.434;6.788;2023-04-25T14:46:31;12.20;99.90
9103;DHT22;4587;51.434;6.788;2023-04-25T14:48:57;12.00;99.90
9103;DHT22;4587;51.434;6.788;2023-04-25T14:51:23;12.00;99.90
9103;DHT22;4587;51.434;6.788;2023-04-25T14:53:48;11.90;99.90
9103;DHT22;4587;51.434;6.788;2023-04-25T14:56:14;11.80;99.90
9103;DHT22;4587;51.434;6.788;2023-04-25T14:58:40;11.80;99.90
9103;DHT22;4587;51.434;6.788;2023-04-25T15:01:06;11.80;99.90
9103;DHT22;4587;51.434;6.788;2023-04-25T15:03:32;11.80;99.90
9103;DHT22;4587;51.434;6.788;2023-04-25T15:05:58;12.00;99.90
9103;DHT22;4587;51.434;6.788;2023-04-25T15:08:24;12.00;99.90
9103;DHT22;4587;51.434;6.788;2023-04-25T15:10:50;12.10;99.90
9103;DHT22;4587;51.434;6.788;2023-04-25T15:13:17;12.10;99.90
9103;DHT22;4587;51.434;6.788;2023-04-25T15:15:43;11.90;99.90
9103;DHT22;4587;51.434;6.788;2023-04-25T15:18:09;11.80;99.90
9103;DHT22;4587;51.434;6.788;2023-04-25T15:20:34;11.70;99.90
9103;DHT22;4587;51.434;6.788;2023-04-25T15:23:01;11.60;99.90
9103;DHT22;4587;51.434;6.788;2023-04-25T15:25:28;11.50;99.90
9103;DHT22;4587;51.434;6.788;2023-04-25T15:27:54;11.50;99.90
9103;DHT22;4587;51.434;6.788;2023-04-25T15:30:20;11.40;99.90
9103;DHT22;4587;51.434;6.788;2023-04-25T15:32:46;11.40;99.90
9103;DHT22;4587;51.434;6.788;2023-04-25T15:35:13;11.30;99.90
9103;DHT22;4587;51.434;6.788;2023-04-25T15:37:40;11.30;99.90
9103;DHT22;4587;51.434;6.788;2023-04-25T15:40:08;11.40;99.80
9103;DHT22;4587;51.434;6.788;2023-04-25T15:42:55;11.70;99.60
9103;DHT22;4587;51.434;6.788;2023-04-25T15:45:22;11.80;99.20
9103;DHT22;4587;51.434;6.788;2023-04-25T15:47:50;12.00;99.10
9103;DHT22;4587;51.434;6.788;2023-04-25T15:50:17;12.20;98.00
9103;DHT22;4587;51.434;6.788;2023-04-25T15:52:43;12.20;98.20
9103;DHT22;4587;51.434;6.788;2023-04-25T15:55:10;12.00;97.00
9103;DHT22;4587;51.434;6.788;2023-04-25T15:57:36;11.90;97.30
9103;DHT22;4587;51.434;6.788;2023-04-25T16:00:03;11.80;98.00
9103;DHT22;4587;51.434;6.788;2023-04-25T16:02:32;11.80;97.80
9103;DHT22;4587;51.434;6.788;2023-04-25T16:04:57;11.70;97.60
9103;DHT22;4587;51.434;6.788;2023-04-25T16:07:23;11.60;98.10
9103;DHT22;4587;51.434;6.788;2023-04-25T16:09:49;11.60;98.40
9103;DHT22;4587;51.434;6.788;2023-04-25T16:12:14;11.70;98.80
9103;DHT22;4587;51.434;6.788;2023-04-25T16:14:40;11.60;98.90
9103;DHT22;4587;51.434;6.788;2023-04-25T16:17:06;11.50;99.00
9103;DHT22;4587;51.434;6.788;2023-04-25T16:19:32;11.60;98.30
9103;DHT22;4587;51.434;6.788;2023-04-25T16:21:57;11.50;98.00